Terminal Aerodrome Forecast
Issued by NWS

Current Version | Previous Version | Graphics & Text | Print | Product List | Glossary On
Versions: 1 2 3 4 5 6 7 8 9 10 11 12 13 14 15 16 17 18 19 20 21 22 23 24 25 26 27
098
FTUS41 KILN 201729
TAFLUK
TAF
KLUK 201729Z 2018/2118 23016G28KT P6SM SCT050 BKN250
     FM202100 22015G25KT P6SM VCTS SCT050CB BKN100
     FM202300 24012G22KT 5SM -SHRA BKN050 OVC100
      TEMPO 2023/2103 2SM TSRA OVC025CB
     FM210300 23008KT 5SM -SHRA VCTS OVC050CB
     FM210500 26006KT P6SM VCSH BKN025
     FM210800 31006KT P6SM BKN025
     FM211500 32006KT P6SM SCT050 BKN100=

USA.gov is the U.S. government's official web portal to all federal, state and local government web resources and services.